sensor_id;sensor_type;location;lat;lon;timestamp;temperature;humidity
15083;DHT22;7640;53.116;6.878;2022-09-20T00:01:36;12.00;99.90
15083;DHT22;7640;53.116;6.878;2022-09-20T00:04:06;11.90;99.90
15083;DHT22;7640;53.116;6.878;2022-09-20T00:06:37;11.60;99.90
15083;DHT22;7640;53.116;6.878;2022-09-20T00:09:05;11.80;99.90
15083;DHT22;7640;53.116;6.878;2022-09-20T00:11:34;11.70;99.90
15083;DHT22;7640;53.116;6.878;2022-09-20T00:14:04;11.70;99.90
15083;DHT22;7640;53.116;6.878;2022-09-20T00:16:40;11.60;99.90
15083;DHT22;7640;53.116;6.878;2022-09-20T00:19:20;11.60;99.90
15083;DHT22;7640;53.116;6.878;2022-09-20T00:21:48;11.60;99.90
15083;DHT22;7640;53.116;6.878;2022-09-20T00:24:17;11.50;99.90
15083;DHT22;7640;53.116;6.878;2022-09-20T00:26:45;11.50;99.90
15083;DHT22;7640;53.116;6.878;2022-09-20T00:29:13;11.40;99.90
15083;DHT22;7640;53.116;6.878;2022-09-20T00:31:43;11.30;99.90
15083;DHT22;7640;53.116;6.878;2022-09-20T00:34:12;11.30;99.90
15083;DHT22;7640;53.116;6.878;2022-09-20T00:37:00;11.30;99.90
15083;DHT22;7640;53.116;6.878;2022-09-20T00:39:28;11.20;99.90
15083;DHT22;7640;53.116;6.878;2022-09-20T00:41:57;11.20;99.90
15083;DHT22;7640;53.116;6.878;2022-09-20T00:44:52;11.20;99.90
15083;DHT22;7640;53.116;6.878;2022-09-20T00:47:33;11.10;99.90
15083;DHT22;7640;53.116;6.878;2022-09-20T00:50:19;11.10;99.90
15083;DHT22;7640;53.116;6.878;2022-09-20T00:52:57;11.10;99.90
15083;DHT22;7640;53.116;6.878;2022-09-20T00:55:29;11.10;99.90
15083;DHT22;7640;53.116;6.878;2022-09-20T00:58:05;11.10;99.90
15083;DHT22;7640;53.116;6.878;2022-09-20T01:00:36;11.10;99.90
15083;DHT22;7640;53.116;6.878;2022-09-20T01:03:08;11.00;99.90
15083;DHT22;7640;53.116;6.878;2022-09-20T01:05:37;11.00;99.90
15083;DHT22;7640;53.116;6.878;2022-09-20T01:08:07;11.00;99.90
15083;DHT22;7640;53.116;6.878;2022-09-20T01:10:36;10.90;99.90
15083;DHT22;7640;53.116;6.878;2022-09-20T01:13:04;10.90;99.90
15083;DHT22;7640;53.116;6.878;2022-09-20T01:15:33;10.90;99.90
15083;DHT22;7640;53.116;6.878;2022-09-20T01:18:04;11.00;99.90
15083;DHT22;7640;53.116;6.878;2022-09-20T01:20:37;10.90;99.90
15083;DHT22;7640;53.116;6.878;2022-09-20T01:23:33;11.00;99.90
15083;DHT22;7640;53.116;6.878;2022-09-20T01:26:33;11.00;99.90
15083;DHT22;7640;53.116;6.878;2022-09-20T01:29:30;11.00;99.90
15083;DHT22;7640;53.116;6.878;2022-09-20T01:32:10;11.00;99.90
15083;DHT22;7640;53.116;6.878;2022-09-20T01:34:46;11.00;99.90
15083;DHT22;7640;53.116;6.878;2022-09-20T01:37:19;11.00;99.90
15083;DHT22;7640;53.116;6.878;2022-09-20T01:40:00;11.00;99.90
15083;DHT22;7640;53.116;6.878;2022-09-20T01:42:35;11.00;99.90
15083;DHT22;7640;53.116;6.878;2022-09-20T01:45:16;10.90;99.90
15083;DHT22;7640;53.116;6.878;2022-09-20T01:47:56;10.90;99.90
15083;DHT22;7640;53.116;6.878;2022-09-20T01:50:35;10.80;99.90
15083;DHT22;7640;53.116;6.878;2022-09-20T01:53:25;10.80;99.90
15083;DHT22;7640;53.116;6.878;2022-09-20T01:56:29;10.70;99.90
15083;DHT22;7640;53.116;6.878;2022-09-20T01:59:46;10.60;99.90
15083;DHT22;7640;53.116;6.878;2022-09-20T02:06:01;11.10;99.90
15083;DHT22;7640;53.116;6.878;2022-09-20T02:08:55;10.40;99.90
15083;DHT22;7640;53.116;6.878;2022-09-20T02:11:42;10.40;99.90
15083;DHT22;7640;53.116;6.878;2022-09-20T02:14:36;10.30;99.90
15083;DHT22;7640;53.116;6.878;2022-09-20T02:17:11;10.60;99.90
15083;DHT22;7640;53.116;6.878;2022-09-20T02:19:59;10.20;99.90
15083;DHT22;7640;53.116;6.878;2022-09-20T02:22:41;10.20;99.90
15083;DHT22;7640;53.116;6.878;2022-09-20T02:25:28;10.10;99.90
15083;DHT22;7640;53.116;6.878;2022-09-20T02:28:19;10.10;99.90
15083;DHT22;7640;53.116;6.878;2022-09-20T02:30:57;10.10;99.90
15083;DHT22;7640;53.116;6.878;2022-09-20T02:33:51;9.80;99.90
15083;DHT22;7640;53.116;6.878;2022-09-20T02:36:48;10.20;99.90
15083;DHT22;7640;53.116;6.878;2022-09-20T02:39:28;10.20;99.90
15083;DHT22;7640;53.116;6.878;2022-09-20T02:42:10;10.30;99.90
15083;DHT22;7640;53.116;6.878;2022-09-20T02:44:47;10.30;99.90
15083;DHT22;7640;53.116;6.878;2022-09-20T02:47:29;10.30;99.90
15083;DHT22;7640;53.116;6.878;2022-09-20T02:50:10;10.30;99.90
15083;DHT22;7640;53.116;6.878;2022-09-20T02:52:57;10.30;99.90
15083;DHT22;7640;53.116;6.878;2022-09-20T02:55:37;10.20;99.90
15083;DHT22;7640;53.116;6.878;2022-09-20T02:58:25;10.20;99.90
15083;DHT22;7640;53.116;6.878;2022-09-20T03:01:04;10.10;99.90
15083;DHT22;7640;53.116;6.878;2022-09-20T03:03:44;10.10;99.90
15083;DHT22;7640;53.116;6.878;2022-09-20T03:06:23;10.00;99.90
15083;DHT22;7640;53.116;6.878;2022-09-20T03:09:01;9.90;99.90
15083;DHT22;7640;53.116;6.878;2022-09-20T03:11:40;9.90;99.90
15083;DHT22;7640;53.116;6.878;2022-09-20T03:14:15;9.80;99.90
15083;DHT22;7640;53.116;6.878;2022-09-20T03:17:01;9.70;99.90
15083;DHT22;7640;53.116;6.878;2022-09-20T03:19:45;9.70;99.90
15083;DHT22;7640;53.116;6.878;2022-09-20T03:22:39;9.60;99.90
15083;DHT22;7640;53.116;6.878;2022-09-20T03:25:32;9.60;99.90
15083;DHT22;7640;53.116;6.878;2022-09-20T03:28:14;9.50;99.90
15083;DHT22;7640;53.116;6.878;2022-09-20T03:30:58;9.50;99.90
15083;DHT22;7640;53.116;6.878;2022-09-20T03:33:40;9.40;99.90
15083;DHT22;7640;53.116;6.878;2022-09-20T03:36:30;9.40;99.90
15083;DHT22;7640;53.116;6.878;2022-09-20T03:39:28;9.40;99.90
15083;DHT22;7640;53.116;6.878;2022-09-20T03:42:12;9.30;99.90
15083;DHT22;7640;53.116;6.878;2022-09-20T03:45:11;9.30;99.90
15083;DHT22;7640;53.116;6.878;2022-09-20T03:48:04;9.30;99.90
15083;DHT22;7640;53.116;6.878;2022-09-20T03:50:50;9.30;99.90
15083;DHT22;7640;53.116;6.878;2022-09-20T03:57:24;9.30;99.90
15083;DHT22;7640;53.116;6.878;2022-09-20T04:00:18;9.30;99.90
15083;DHT22;7640;53.116;6.878;2022-09-20T04:03:12;9.30;99.90
15083;DHT22;7640;53.116;6.878;2022-09-20T04:05:53;9.30;99.90
15083;DHT22;7640;53.116;6.878;2022-09-20T04:08:44;9.20;99.90
15083;DHT22;7640;53.116;6.878;2022-09-20T04:11:26;9.20;99.90
15083;DHT22;7640;53.116;6.878;2022-09-20T04:14:08;9.20;99.90
15083;DHT22;7640;53.116;6.878;2022-09-20T04:16:43;9.20;99.90
15083;DHT22;7640;53.116;6.878;2022-09-20T04:19:22;9.20;99.90
15083;DHT22;7640;53.116;6.878;2022-09-20T04:21:59;9.20;99.90
15083;DHT22;7640;53.116;6.878;2022-09-20T04:24:43;9.20;99.90
15083;DHT22;7640;53.116;6.878;2022-09-20T04:27:20;9.20;99.90
15083;DHT22;7640;53.116;6.878;2022-09-20T04:29:58;9.10;99.90
15083;DHT22;7640;53.116;6.878;2022-09-20T04:32:34;9.20;99.90
15083;DHT22;7640;53.116;6.878;2022-09-20T04:35:15;9.10;99.90
15083;DHT22;7640;53.116;6.878;2022-09-20T04:38:09;9.10;99.90
15083;DHT22;7640;53.116;6.878;2022-09-20T04:40:58;9.10;99.90
15083;DHT22;7640;53.116;6.878;2022-09-20T04:44:17;9.10;99.90
15083;DHT22;7640;53.116;6.878;2022-09-20T04:47:15;9.10;99.90
15083;DHT22;7640;53.116;6.878;2022-09-20T04:53:45;9.10;99.90
15083;DHT22;7640;53.116;6.878;2022-09-20T04:56:32;9.10;99.90
15083;DHT22;7640;53.116;6.878;2022-09-20T04:59:09;9.10;99.90
15083;DHT22;7640;53.116;6.878;2022-09-20T05:02:23;9.00;99.90
15083;DHT22;7640;53.116;6.878;2022-09-20T05:05:20;9.00;99.90
15083;DHT22;7640;53.116;6.878;2022-09-20T05:08:34;8.90;99.90
15083;DHT22;7640;53.116;6.878;2022-09-20T05:11:53;9.00;99.90
15083;DHT22;7640;53.116;6.878;2022-09-20T05:14:42;9.00;99.90
15083;DHT22;7640;53.116;6.878;2022-09-20T05:17:30;9.00;99.90
15083;DHT22;7640;53.116;6.878;2022-09-20T05:23:22;9.00;99.90
15083;DHT22;7640;53.116;6.878;2022-09-20T05:26:11;9.00;99.90
15083;DHT22;7640;53.116;6.878;2022-09-20T05:28:49;9.00;99.90
15083;DHT22;7640;53.116;6.878;2022-09-20T05:31:31;9.00;99.90
15083;DHT22;7640;53.116;6.878;2022-09-20T05:34:10;9.00;99.90
15083;DHT22;7640;53.116;6.878;2022-09-20T05:36:52;9.00;99.90
15083;DHT22;7640;53.116;6.878;2022-09-20T05:39:32;9.00;99.90
15083;DHT22;7640;53.116;6.878;2022-09-20T05:42:15;9.00;99.90
15083;DHT22;7640;53.116;6.878;2022-09-20T05:44:56;9.10;99.90
15083;DHT22;7640;53.116;6.878;2022-09-20T05:47:36;9.10;99.90
15083;DHT22;7640;53.116;6.878;2022-09-20T05:56:32;9.30;99.90
15083;DHT22;7640;53.116;6.878;2022-09-20T05:59:20;9.30;99.90
15083;DHT22;7640;53.116;6.878;2022-09-20T06:02:18;9.40;99.90
15083;DHT22;7640;53.116;6.878;2022-09-20T06:04:59;9.50;99.90
15083;DHT22;7640;53.116;6.878;2022-09-20T06:07:48;9.60;99.90
15083;DHT22;7640;53.116;6.878;2022-09-20T06:13:37;9.80;99.90
15083;DHT22;7640;53.116;6.878;2022-09-20T06:16:17;9.90;99.90
15083;DHT22;7640;53.116;6.878;2022-09-20T06:19:00;10.00;99.90
15083;DHT22;7640;53.116;6.878;2022-09-20T06:21:38;10.20;99.90
15083;DHT22;7640;53.116;6.878;2022-09-20T06:24:21;10.30;99.90
15083;DHT22;7640;53.116;6.878;2022-09-20T06:27:00;10.40;99.90
15083;DHT22;7640;53.116;6.878;2022-09-20T06:29:32;10.70;99.90
15083;DHT22;7640;53.116;6.878;2022-09-20T06:32:02;10.70;99.90
15083;DHT22;7640;53.116;6.878;2022-09-20T06:34:31;10.70;99.90
15083;DHT22;7640;53.116;6.878;2022-09-20T06:37:09;10.80;99.90
15083;DHT22;7640;53.116;6.878;2022-09-20T06:40:12;10.90;99.90
15083;DHT22;7640;53.116;6.878;2022-09-20T06:43:02;11.00;99.90
15083;DHT22;7640;53.116;6.878;2022-09-20T06:45:31;11.00;99.90
15083;DHT22;7640;53.116;6.878;2022-09-20T06:47:59;11.10;99.90
15083;DHT22;7640;53.116;6.878;2022-09-20T06:50:27;11.10;99.90
15083;DHT22;7640;53.116;6.878;2022-09-20T06:52:56;11.20;99.90
15083;DHT22;7640;53.116;6.878;2022-09-20T06:55:29;11.30;99.90
15083;DHT22;7640;53.116;6.878;2022-09-20T06:58:02;11.40;99.90
15083;DHT22;7640;53.116;6.878;2022-09-20T07:00:31;11.40;99.90
15083;DHT22;7640;53.116;6.878;2022-09-20T07:02:59;11.50;99.90
15083;DHT22;7640;53.116;6.878;2022-09-20T07:05:27;11.60;99.90
15083;DHT22;7640;53.116;6.878;2022-09-20T07:07:56;11.70;99.90
15083;DHT22;7640;53.116;6.878;2022-09-20T07:10:26;11.80;99.90
15083;DHT22;7640;53.116;6.878;2022-09-20T07:12:56;11.90;99.90
15083;DHT22;7640;53.116;6.878;2022-09-20T07:15:26;12.00;99.90
15083;DHT22;7640;53.116;6.878;2022-09-20T07:17:54;12.10;99.90
15083;DHT22;7640;53.116;6.878;2022-09-20T07:20:23;12.20;99.90
15083;DHT22;7640;53.116;6.878;2022-09-20T07:22:51;12.40;99.90
15083;DHT22;7640;53.116;6.878;2022-09-20T07:25:20;12.50;99.90
15083;DHT22;7640;53.116;6.878;2022-09-20T07:27:50;12.50;99.90
15083;DHT22;7640;53.116;6.878;2022-09-20T07:30:19;12.50;99.90
15083;DHT22;7640;53.116;6.878;2022-09-20T07:32:47;12.50;99.90
15083;DHT22;7640;53.116;6.878;2022-09-20T07:35:15;12.50;99.90
15083;DHT22;7640;53.116;6.878;2022-09-20T07:37:44;12.50;99.90
15083;DHT22;7640;53.116;6.878;2022-09-20T07:40:13;12.60;99.90
15083;DHT22;7640;53.116;6.878;2022-09-20T07:42:42;12.60;99.90
15083;DHT22;7640;53.116;6.878;2022-09-20T07:45:13;12.60;99.90
15083;DHT22;7640;53.116;6.878;2022-09-20T07:47:41;12.50;99.90
15083;DHT22;7640;53.116;6.878;2022-09-20T07:50:12;12.50;99.90
15083;DHT22;7640;53.116;6.878;2022-09-20T07:52:40;12.50;99.90
15083;DHT22;7640;53.116;6.878;2022-09-20T07:55:08;12.50;99.90
15083;DHT22;7640;53.116;6.878;2022-09-20T07:57:37;12.60;99.90
15083;DHT22;7640;53.116;6.878;2022-09-20T08:00:07;12.60;99.90
15083;DHT22;7640;53.116;6.878;2022-09-20T08:02:38;12.70;99.90
15083;DHT22;7640;53.116;6.878;2022-09-20T08:05:07;12.70;99.90
15083;DHT22;7640;53.116;6.878;2022-09-20T08:07:35;12.70;99.90
15083;DHT22;7640;53.116;6.878;2022-09-20T08:10:04;12.70;99.90
15083;DHT22;7640;53.116;6.878;2022-09-20T08:12:33;12.80;99.90
15083;DHT22;7640;53.116;6.878;2022-09-20T08:15:22;12.80;99.90
15083;DHT22;7640;53.116;6.878;2022-09-20T08:17:52;12.90;99.90
15083;DHT22;7640;53.116;6.878;2022-09-20T08:20:21;13.00;99.90
15083;DHT22;7640;53.116;6.878;2022-09-20T08:22:49;13.20;99.90
15083;DHT22;7640;53.116;6.878;2022-09-20T08:25:37;13.30;99.90
15083;DHT22;7640;53.116;6.878;2022-09-20T08:28:07;13.40;99.90
15083;DHT22;7640;53.116;6.878;2022-09-20T08:30:35;13.50;99.90
15083;DHT22;7640;53.116;6.878;2022-09-20T08:33:05;13.50;99.90
15083;DHT22;7640;53.116;6.878;2022-09-20T08:35:35;13.60;99.90
15083;DHT22;7640;53.116;6.878;2022-09-20T08:38:04;13.70;99.90
15083;DHT22;7640;53.116;6.878;2022-09-20T08:40:55;13.80;99.90
15083;DHT22;7640;53.116;6.878;2022-09-20T08:43:28;13.90;99.90
15083;DHT22;7640;53.116;6.878;2022-09-20T08:46:02;14.00;99.90
15083;DHT22;7640;53.116;6.878;2022-09-20T08:48:33;14.10;99.90
15083;DHT22;7640;53.116;6.878;2022-09-20T08:51:03;14.10;99.90
15083;DHT22;7640;53.116;6.878;2022-09-20T08:53:32;14.20;99.90
15083;DHT22;7640;53.116;6.878;2022-09-20T08:56:01;14.20;99.90
15083;DHT22;7640;53.116;6.878;2022-09-20T08:58:30;14.30;99.90
15083;DHT22;7640;53.116;6.878;2022-09-20T09:00:58;14.40;99.90
15083;DHT22;7640;53.116;6.878;2022-09-20T09:03:27;14.40;99.90
15083;DHT22;7640;53.116;6.878;2022-09-20T09:05:56;14.50;99.90
15083;DHT22;7640;53.116;6.878;2022-09-20T09:08:27;14.60;99.90
15083;DHT22;7640;53.116;6.878;2022-09-20T09:11:06;14.70;99.90
15083;DHT22;7640;53.116;6.878;2022-09-20T09:13:51;14.80;99.90
15083;DHT22;7640;53.116;6.878;2022-09-20T09:16:23;15.00;99.90
15083;DHT22;7640;53.116;6.878;2022-09-20T09:19:25;15.00;99.90
15083;DHT22;7640;53.116;6.878;2022-09-20T09:22:02;15.10;99.90
15083;DHT22;7640;53.116;6.878;2022-09-20T09:24:31;15.10;99.90
15083;DHT22;7640;53.116;6.878;2022-09-20T09:27:12;15.20;99.90
15083;DHT22;7640;53.116;6.878;2022-09-20T09:29:48;15.30;99.90
15083;DHT22;7640;53.116;6.878;2022-09-20T09:32:22;15.30;99.90
15083;DHT22;7640;53.116;6.878;2022-09-20T09:34:54;15.30;99.90
15083;DHT22;7640;53.116;6.878;2022-09-20T09:37:28;15.30;99.90
15083;DHT22;7640;53.116;6.878;2022-09-20T09:40:12;15.30;99.90
15083;DHT22;7640;53.116;6.878;2022-09-20T09:42:53;15.30;99.90
15083;DHT22;7640;53.116;6.878;2022-09-20T09:45:26;15.30;99.90
15083;DHT22;7640;53.116;6.878;2022-09-20T09:47:58;15.30;99.90
15083;DHT22;7640;53.116;6.878;2022-09-20T09:50:30;15.30;99.90
15083;DHT22;7640;53.116;6.878;2022-09-20T09:53:09;15.40;99.90
15083;DHT22;7640;53.116;6.878;2022-09-20T09:55:51;15.50;99.90
15083;DHT22;7640;53.116;6.878;2022-09-20T09:58:37;15.70;99.90
15083;DHT22;7640;53.116;6.878;2022-09-20T10:01:19;15.90;99.90
15083;DHT22;7640;53.116;6.878;2022-09-20T10:04:03;16.10;99.90
15083;DHT22;7640;53.116;6.878;2022-09-20T10:06:37;16.30;99.90
15083;DHT22;7640;53.116;6.878;2022-09-20T10:09:29;16.50;99.90
15083;DHT22;7640;53.116;6.878;2022-09-20T10:12:24;16.60;99.90
15083;DHT22;7640;53.116;6.878;2022-09-20T10:15:12;16.80;99.90
15083;DHT22;7640;53.116;6.878;2022-09-20T10:17:52;17.00;99.90
15083;DHT22;7640;53.116;6.878;2022-09-20T10:20:40;17.20;99.90
15083;DHT22;7640;53.116;6.878;2022-09-20T10:23:43;17.30;99.90
15083;DHT22;7640;53.116;6.878;2022-09-20T10:26:48;17.50;99.90
15083;DHT22;7640;53.116;6.878;2022-09-20T10:29:37;17.60;99.90
15083;DHT22;7640;53.116;6.878;2022-09-20T10:32:19;17.70;99.90
15083;DHT22;7640;53.116;6.878;2022-09-20T10:35:12;17.80;99.90
15083;DHT22;7640;53.116;6.878;2022-09-20T10:37:59;18.00;99.90
15083;DHT22;7640;53.116;6.878;2022-09-20T10:40:37;18.10;99.90
15083;DHT22;7640;53.116;6.878;2022-09-20T10:43:46;18.30;99.90
15083;DHT22;7640;53.116;6.878;2022-09-20T10:46:36;18.30;99.90
15083;DHT22;7640;53.116;6.878;2022-09-20T10:49:24;18.40;99.90
15083;DHT22;7640;53.116;6.878;2022-09-20T10:52:15;18.40;99.90
15083;DHT22;7640;53.116;6.878;2022-09-20T10:55:02;18.40;99.90
15083;DHT22;7640;53.116;6.878;2022-09-20T11:00:59;18.60;99.90
15083;DHT22;7640;53.116;6.878;2022-09-20T11:03:43;18.80;99.90
15083;DHT22;7640;53.116;6.878;2022-09-20T11:06:23;18.90;99.90
15083;DHT22;7640;53.116;6.878;2022-09-20T11:08:57;19.00;99.90
15083;DHT22;7640;53.116;6.878;2022-09-20T11:11:32;19.10;99.90
15083;DHT22;7640;53.116;6.878;2022-09-20T11:14:04;19.20;99.90
15083;DHT22;7640;53.116;6.878;2022-09-20T11:16:41;19.30;99.90
15083;DHT22;7640;53.116;6.878;2022-09-20T11:19:17;19.30;99.90
15083;DHT22;7640;53.116;6.878;2022-09-20T11:21:55;19.20;99.90
15083;DHT22;7640;53.116;6.878;2022-09-20T11:24:30;19.30;99.90
15083;DHT22;7640;53.116;6.878;2022-09-20T11:27:08;19.30;99.90
15083;DHT22;7640;53.116;6.878;2022-09-20T11:29:43;19.40;99.90
15083;DHT22;7640;53.116;6.878;2022-09-20T11:32:24;19.50;99.90
15083;DHT22;7640;53.116;6.878;2022-09-20T11:34:58;19.50;99.90
15083;DHT22;7640;53.116;6.878;2022-09-20T11:37:33;19.50;99.90
15083;DHT22;7640;53.116;6.878;2022-09-20T11:40:12;19.60;99.90
15083;DHT22;7640;53.116;6.878;2022-09-20T11:42:44;19.70;99.90
15083;DHT22;7640;53.116;6.878;2022-09-20T11:45:13;19.60;99.90
15083;DHT22;7640;53.116;6.878;2022-09-20T11:47:45;19.50;99.90
15083;DHT22;7640;53.116;6.878;2022-09-20T11:50:46;19.60;99.90
15083;DHT22;7640;53.116;6.878;2022-09-20T11:53:39;19.70;99.90
15083;DHT22;7640;53.116;6.878;2022-09-20T11:56:17;19.60;99.90
15083;DHT22;7640;53.116;6.878;2022-09-20T11:58:49;19.60;99.90
15083;DHT22;7640;53.116;6.878;2022-09-20T12:01:25;19.60;99.90
15083;DHT22;7640;53.116;6.878;2022-09-20T12:03:58;19.60;99.90
15083;DHT22;7640;53.116;6.878;2022-09-20T12:06:58;19.60;99.90
15083;DHT22;7640;53.116;6.878;2022-09-20T12:09:37;19.80;99.90
15083;DHT22;7640;53.116;6.878;2022-09-20T12:12:15;20.00;99.90
15083;DHT22;7640;53.116;6.878;2022-09-20T12:14:52;20.20;99.90
15083;DHT22;7640;53.116;6.878;2022-09-20T12:21:06;21.00;99.90
15083;DHT22;7640;53.116;6.878;2022-09-20T12:24:20;21.40;99.90
15083;DHT22;7640;53.116;6.878;2022-09-20T12:26:51;21.40;99.90
15083;DHT22;7640;53.116;6.878;2022-09-20T12:32:55;20.70;99.90
15083;DHT22;7640;53.116;6.878;2022-09-20T12:35:52;20.40;99.90
15083;DHT22;7640;53.116;6.878;2022-09-20T12:38:28;20.10;99.90
15083;DHT22;7640;53.116;6.878;2022-09-20T12:41:08;20.00;99.90
15083;DHT22;7640;53.116;6.878;2022-09-20T12:43:47;20.00;99.90
15083;DHT22;7640;53.116;6.878;2022-09-20T12:46:33;19.90;99.90
15083;DHT22;7640;53.116;6.878;2022-09-20T12:49:41;20.00;99.90
15083;DHT22;7640;53.116;6.878;2022-09-20T12:52:31;20.40;99.90
15083;DHT22;7640;53.116;6.878;2022-09-20T12:55:37;21.00;99.90
15083;DHT22;7640;53.116;6.878;2022-09-20T12:58:25;21.70;99.90
15083;DHT22;7640;53.116;6.878;2022-09-20T13:01:27;22.30;99.90
15083;DHT22;7640;53.116;6.878;2022-09-20T13:07:46;23.30;99.90
15083;DHT22;7640;53.116;6.878;2022-09-20T13:10:33;23.50;99.90
15083;DHT22;7640;53.116;6.878;2022-09-20T13:13:26;23.80;99.90
15083;DHT22;7640;53.116;6.878;2022-09-20T13:15:59;24.10;99.90
15083;DHT22;7640;53.116;6.878;2022-09-20T13:18:32;24.10;99.90
15083;DHT22;7640;53.116;6.878;2022-09-20T13:21:02;24.30;99.90
15083;DHT22;7640;53.116;6.878;2022-09-20T13:23:43;24.50;99.90
15083;DHT22;7640;53.116;6.878;2022-09-20T13:26:20;24.50;99.90
15083;DHT22;7640;53.116;6.878;2022-09-20T13:28:54;24.50;99.90
15083;DHT22;7640;53.116;6.878;2022-09-20T13:31:26;24.60;99.90
15083;DHT22;7640;53.116;6.878;2022-09-20T13:34:16;24.90;99.90
15083;DHT22;7640;53.116;6.878;2022-09-20T13:36:47;25.30;99.90
15083;DHT22;7640;53.116;6.878;2022-09-20T13:39:28;25.60;99.60
15083;DHT22;7640;53.116;6.878;2022-09-20T13:42:02;25.80;98.90
15083;DHT22;7640;53.116;6.878;2022-09-20T13:44:33;26.20;98.70
15083;DHT22;7640;53.116;6.878;2022-09-20T13:47:23;26.30;97.30
15083;DHT22;7640;53.116;6.878;2022-09-20T13:49:59;25.60;96.10
15083;DHT22;7640;53.116;6.878;2022-09-20T13:52:30;24.80;96.60
15083;DHT22;7640;53.116;6.878;2022-09-20T13:54:58;24.00;97.30
15083;DHT22;7640;53.116;6.878;2022-09-20T13:57:28;23.20;97.60
15083;DHT22;7640;53.116;6.878;2022-09-20T13:59:57;22.80;98.60
15083;DHT22;7640;53.116;6.878;2022-09-20T14:02:29;23.00;99.40
15083;DHT22;7640;53.116;6.878;2022-09-20T14:05:00;23.40;99.90
15083;DHT22;7640;53.116;6.878;2022-09-20T14:07:30;23.60;99.20
15083;DHT22;7640;53.116;6.878;2022-09-20T14:09:59;23.40;99.20
15083;DHT22;7640;53.116;6.878;2022-09-20T14:12:31;23.50;98.40
15083;DHT22;7640;53.116;6.878;2022-09-20T14:15:04;23.60;99.50
15083;DHT22;7640;53.116;6.878;2022-09-20T14:17:37;23.90;99.00
15083;DHT22;7640;53.116;6.878;2022-09-20T14:20:08;24.20;99.30
15083;DHT22;7640;53.116;6.878;2022-09-20T14:22:42;24.60;98.60
15083;DHT22;7640;53.116;6.878;2022-09-20T14:25:22;25.00;97.30
15083;DHT22;7640;53.116;6.878;2022-09-20T14:28:06;25.20;96.30
15083;DHT22;7640;53.116;6.878;2022-09-20T14:30:44;25.50;96.10
15083;DHT22;7640;53.116;6.878;2022-09-20T14:33:15;25.80;95.90
15083;DHT22;7640;53.116;6.878;2022-09-20T14:35:47;25.90;95.40
15083;DHT22;7640;53.116;6.878;2022-09-20T14:38:17;26.20;94.70
15083;DHT22;7640;53.116;6.878;2022-09-20T14:40:50;26.40;94.30
15083;DHT22;7640;53.116;6.878;2022-09-20T14:43:24;26.60;94.30
15083;DHT22;7640;53.116;6.878;2022-09-20T14:45:58;26.80;94.40
15083;DHT22;7640;53.116;6.878;2022-09-20T14:48:32;27.00;94.70
15083;DHT22;7640;53.116;6.878;2022-09-20T14:51:20;27.20;94.00
15083;DHT22;7640;53.116;6.878;2022-09-20T14:53:52;27.40;93.50
15083;DHT22;7640;53.116;6.878;2022-09-20T14:56:32;27.60;93.40
15083;DHT22;7640;53.116;6.878;2022-09-20T14:59:18;27.70;92.20
15083;DHT22;7640;53.116;6.878;2022-09-20T15:02:02;27.80;92.10
15083;DHT22;7640;53.116;6.878;2022-09-20T15:04:36;27.90;91.80
15083;DHT22;7640;53.116;6.878;2022-09-20T15:07:05;28.10;91.80
15083;DHT22;7640;53.116;6.878;2022-09-20T15:09:36;28.30;91.40
15083;DHT22;7640;53.116;6.878;2022-09-20T15:12:08;28.30;91.20
15083;DHT22;7640;53.116;6.878;2022-09-20T15:14:40;28.40;90.50
15083;DHT22;7640;53.116;6.878;2022-09-20T15:17:12;28.30;90.20
15083;DHT22;7640;53.116;6.878;2022-09-20T15:19:43;28.40;90.90
15083;DHT22;7640;53.116;6.878;2022-09-20T15:22:11;28.60;90.80
15083;DHT22;7640;53.116;6.878;2022-09-20T15:24:41;29.00;90.80
15083;DHT22;7640;53.116;6.878;2022-09-20T15:27:12;29.20;90.80
15083;DHT22;7640;53.116;6.878;2022-09-20T15:29:41;29.50;90.80
15083;DHT22;7640;53.116;6.878;2022-09-20T15:32:10;29.60;89.70
15083;DHT22;7640;53.116;6.878;2022-09-20T15:34:38;29.60;88.10
15083;DHT22;7640;53.116;6.878;2022-09-20T15:37:06;29.80;87.60
15083;DHT22;7640;53.116;6.878;2022-09-20T15:39:35;30.00;88.10
15083;DHT22;7640;53.116;6.878;2022-09-20T15:42:04;30.10;85.90
15083;DHT22;7640;53.116;6.878;2022-09-20T15:44:32;29.70;85.60
15083;DHT22;7640;53.116;6.878;2022-09-20T15:47:02;29.70;86.20
15083;DHT22;7640;53.116;6.878;2022-09-20T15:49:30;29.60;87.30
15083;DHT22;7640;53.116;6.878;2022-09-20T15:51:58;29.60;86.10
15083;DHT22;7640;53.116;6.878;2022-09-20T15:54:28;29.60;86.10
15083;DHT22;7640;53.116;6.878;2022-09-20T15:56:56;29.70;86.80
15083;DHT22;7640;53.116;6.878;2022-09-20T15:59:24;30.00;86.10
15083;DHT22;7640;53.116;6.878;2022-09-20T16:01:55;30.30;85.40
15083;DHT22;7640;53.116;6.878;2022-09-20T16:04:24;30.10;83.40
15083;DHT22;7640;53.116;6.878;2022-09-20T16:06:53;29.90;82.80
15083;DHT22;7640;53.116;6.878;2022-09-20T16:09:21;29.70;82.50
15083;DHT22;7640;53.116;6.878;2022-09-20T16:11:51;29.60;83.00
15083;DHT22;7640;53.116;6.878;2022-09-20T16:14:24;29.40;83.90
15083;DHT22;7640;53.116;6.878;2022-09-20T16:16:52;29.30;84.90
15083;DHT22;7640;53.116;6.878;2022-09-20T16:19:29;29.40;86.50
15083;DHT22;7640;53.116;6.878;2022-09-20T16:21:56;29.40;84.00
15083;DHT22;7640;53.116;6.878;2022-09-20T16:24:26;29.30;85.20
15083;DHT22;7640;53.116;6.878;2022-09-20T16:26:56;29.40;84.20
15083;DHT22;7640;53.116;6.878;2022-09-20T16:29:26;29.30;83.80
15083;DHT22;7640;53.116;6.878;2022-09-20T16:31:56;29.00;83.40
15083;DHT22;7640;53.116;6.878;2022-09-20T16:34:26;28.30;83.50
15083;DHT22;7640;53.116;6.878;2022-09-20T16:36:59;27.30;84.80
15083;DHT22;7640;53.116;6.878;2022-09-20T16:39:29;26.30;88.10
15083;DHT22;7640;53.116;6.878;2022-09-20T16:41:58;25.40;90.20
15083;DHT22;7640;53.116;6.878;2022-09-20T16:44:29;24.60;91.10
15083;DHT22;7640;53.116;6.878;2022-09-20T16:46:58;24.00;92.10
15083;DHT22;7640;53.116;6.878;2022-09-20T16:49:26;23.40;93.00
15083;DHT22;7640;53.116;6.878;2022-09-20T16:51:55;22.90;93.70
15083;DHT22;7640;53.116;6.878;2022-09-20T16:54:25;22.30;94.60
15083;DHT22;7640;53.116;6.878;2022-09-20T16:56:57;21.80;95.50
15083;DHT22;7640;53.116;6.878;2022-09-20T16:59:27;21.30;96.20
15083;DHT22;7640;53.116;6.878;2022-09-20T17:01:56;20.90;97.00
15083;DHT22;7640;53.116;6.878;2022-09-20T17:04:24;20.50;97.80
15083;DHT22;7640;53.116;6.878;2022-09-20T17:06:53;20.20;98.90
15083;DHT22;7640;53.116;6.878;2022-09-20T17:09:21;20.00;99.30
15083;DHT22;7640;53.116;6.878;2022-09-20T17:11:51;19.70;99.90
15083;DHT22;7640;53.116;6.878;2022-09-20T17:14:20;19.40;99.90
15083;DHT22;7640;53.116;6.878;2022-09-20T17:16:50;19.20;99.90
15083;DHT22;7640;53.116;6.878;2022-09-20T17:19:19;19.00;99.90
15083;DHT22;7640;53.116;6.878;2022-09-20T17:21:48;18.80;99.90
15083;DHT22;7640;53.116;6.878;2022-09-20T17:24:18;18.70;99.90
15083;DHT22;7640;53.116;6.878;2022-09-20T17:26:48;18.60;99.90
15083;DHT22;7640;53.116;6.878;2022-09-20T17:29:18;18.40;99.90
15083;DHT22;7640;53.116;6.878;2022-09-20T17:31:48;18.20;99.90
15083;DHT22;7640;53.116;6.878;2022-09-20T17:34:22;18.00;99.90